Hertfordshire — ZDJS5 — position and weather

sailwx.info

Track history (hours):
 
Tides and Currents Weather Stations Pressure Air Temp Water Temp Dewpoint Dewpoint Depression Visibility Wind Speed Wind Dir Waves Ship Positions

Hertfordshire

Last reported at 2015-Jul-31 04:33 UTC. Time now 2015-Jul-31 05:07 UTC.
Position N 51°09' E 001°37'.

Length 83 m; draft 5.1 m.

Type: Cargo ship. MMSI: 236563000.

Date/timePositionNaut miles runAvg speedWind from/ knotsBaromVisibWave heightAir tempDewpointWater temp
2015-Jul-31 04:33N 51°09' E 001°37'1010.0
2015-Jul-31 03:34N 51°16' E 001°48'9 8.8
2015-Jul-31 02:34N 51°23' E 001°57'7 7.4
2015-Jul-31 01:33N 51°23' E 002°09'8 8.1
2015-Jul-31 00:33N 51°22' E 002°22'8 7.8
2015-Jul-30 23:33N 51°23' E 002°34'8 8.1
2015-Jul-30 22:34N 51°22' E 002°47'9 9.2
2015-Jul-30 21:33N 51°22' E 003°02'1010.1
2015-Jul-30 20:33N 51°24' E 003°18'1010.0
2015-Jul-30 19:33N 51°26' E 003°33'9 9.0
2015-Jul-30 18:33N 51°22' E 003°46'4 4.0
2015-Jul-30 17:33N 51°18' E 003°50'7 7.4
2015-Jul-30 16:34N 51°11' E 003°48'6 6.2
2015-Jul-30 15:33N 51°05' E 003°44'0 0.0
2015-Jul-30 14:33N 51°05' E 003°44'0 0.0
2015-Jul-30 13:33N 51°05' E 003°44'0 0.0
2015-Jul-30 12:33N 51°05' E 003°44'0 0.0
2015-Jul-30 11:33N 51°05' E 003°44'0 0.0
2015-Jul-30 10:33N 51°05' E 003°44'0 0.0
2015-Jul-30 09:33N 51°05' E 003°44'0 0.0
2015-Jul-30 08:34N 51°05' E 003°44'0 0.0
2015-Jul-30 07:33N 51°05' E 003°44'0 0.0
2015-Jul-30 06:34N 51°05' E 003°44'0 0.0
2015-Jul-30 05:33N 51°05' E 003°44'0 0.0
2015-Jul-30 04:33N 51°05' E 003°44'0 0.0
2015-Jul-30 03:34N 51°05' E 003°44'0 0.0
2015-Jul-30 02:33N 51°05' E 003°44'0 0.0
2015-Jul-30 01:33N 51°05' E 003°44'0 0.0
2015-Jul-30 00:34N 51°05' E 003°44'0 0.0
2015-Jul-29 23:32N 51°05' E 003°44'0 0.0
2015-Jul-29 22:33N 51°05' E 003°44'0 0.0
2015-Jul-29 21:33N 51°05' E 003°44'0 0.0
2015-Jul-29 20:33N 51°05' E 003°44'0 0.0
2015-Jul-29 19:33N 51°05' E 003°44'0 0.0
2015-Jul-29 18:33N 51°05' E 003°44'0 0.0
2015-Jul-29 17:33N 51°05' E 003°44'0 0.0
2015-Jul-29 16:33N 51°05' E 003°44'0 0.0
2015-Jul-29 15:33N 51°05' E 003°44'0 0.0
2015-Jul-29 14:33N 51°05' E 003°44'0 0.0
2015-Jul-29 13:33N 51°05' E 003°44'0 0.0
2015-Jul-29 12:32N 51°05' E 003°44'0 0.0
2015-Jul-29 11:33N 51°05' E 003°44'0 0.0
2015-Jul-29 10:33N 51°05' E 003°44'0 0.0
2015-Jul-29 09:33N 51°05' E 003°44'0 0.0
2015-Jul-29 08:33N 51°05' E 003°44'0 0.0
2015-Jul-29 07:34N 51°05' E 003°44'0 0.0
2015-Jul-29 06:33N 51°05' E 003°44'0 0.0
2015-Jul-29 05:33N 51°05' E 003°44'0 0.0
2015-Jul-29 04:33N 51°05' E 003°44'0 0.0
2015-Jul-29 03:33N 51°05' E 003°44'0 0.0
2015-Jul-29 02:33N 51°05' E 003°44'0 0.0
2015-Jul-29 01:33N 51°05' E 003°44'0 0.0
2015-Jul-29 00:33N 51°05' E 003°44'0 0.0
2015-Jul-28 23:33N 51°05' E 003°44'0 0.0
2015-Jul-28 22:33N 51°05' E 003°44'0 0.0
2015-Jul-28 21:33N 51°05' E 003°44'0 0.0
2015-Jul-28 20:33N 51°05' E 003°44'0 0.0
2015-Jul-28 19:33N 51°05' E 003°44'3 2.8
2015-Jul-28 18:33N 51°08' E 003°46'10 9.8
2015-Jul-28 17:34N 51°17' E 003°50'4 4.3
2015-Jul-28 16:34N 51°21' E 003°47'9 8.8
2015-Jul-28 15:34N 51°26' E 003°35'9 9.1
2015-Jul-28 14:34N 51°32' E 003°25'9 8.8
2015-Jul-28 13:33N 51°40' E 003°18'9 8.8
2015-Jul-28 12:33N 51°45' E 003°07'4010.0
2015-Jul-28 08:34N 52°06' E 002°12'1310.4
2015-Jul-28 07:20N 52°18' E 002°04'911.6
2015-Jul-28 06:34N 52°26' E 001°59'1212.3
2015-Jul-28 05:34N 52°38' E 001°52'1312.9
2015-Jul-28 04:34N 52°49' E 001°41'1212.4
2015-Jul-28 03:34N 52°56' E 001°25'1212.1
2015-Jul-28 02:34N 53°02' E 001°07'3411.3
2015-Jul-27 23:34N 53°26' E 000°27'1110.9
2015-Jul-27 22:34N 53°32' E 000°13'9 9.2
2015-Jul-27 21:34N 53°36' W 000°02'1010.4
2015-Jul-27 20:34N 53°43' W 000°14'2 1.9
2015-Jul-27 19:34N 53°45' W 000°16'0 0.2
2015-Jul-27 18:31N 53°45' W 000°15'0 0.0
2015-Jul-27 17:31N 53°44' W 000°15'0 0.0
2015-Jul-27 16:31N 53°44' W 000°15'0 0.0
2015-Jul-27 15:28N 53°44' W 000°15'0 0.0
2015-Jul-27 14:31N 53°44' W 000°15'0 0.0
2015-Jul-27 13:31N 53°44' W 000°15'0 0.0
2015-Jul-27 12:31N 53°44' W 000°15'0 0.0
2015-Jul-27 11:31N 53°44' W 000°15'0 0.0
2015-Jul-27 10:28N 53°45' W 000°15'0 0.0
2015-Jul-27 09:32N 53°44' W 000°15'0 0.1
2015-Jul-27 08:33N 53°45' W 000°15'0 0.0
2015-Jul-27 07:33N 53°45' W 000°16'0 0.1
2015-Jul-27 06:30N 53°44' W 000°15'0 0.1
2015-Jul-27 05:33N 53°45' W 000°15'0 0.0
2015-Jul-27 04:33N 53°44' W 000°15'0 0.0
2015-Jul-27 03:33N 53°44' W 000°15'0 0.1
2015-Jul-27 02:33N 53°44' W 000°15'0 0.1
2015-Jul-27 01:33N 53°44' W 000°15'0 0.1
2015-Jul-27 00:33N 53°44' W 000°15'0 0.0
2015-Jul-26 23:33N 53°45' W 000°15'0 0.0
2015-Jul-26 22:33N 53°44' W 000°15'0 0.0
2015-Jul-26 21:33N 53°44' W 000°15'0 0.0
2015-Jul-26 20:30N 53°44' W 000°15'0 0.1
2015-Jul-26 19:33N 53°45' W 000°16'0 0.0
2015-Jul-26 18:33N 53°45' W 000°15'0 0.0
2015-Jul-26 17:33N 53°44' W 000°15'0 0.0
2015-Jul-26 16:33N 53°45' W 000°15'0 0.0
2015-Jul-26 15:33N 53°45' W 000°15'0 0.1
2015-Jul-26 14:33N 53°44' W 000°16'0 0.1
2015-Jul-26 13:33N 53°44' W 000°15'0 0.0
2015-Jul-26 12:33N 53°44' W 000°15'0 0.1
2015-Jul-26 11:33N 53°44' W 000°15'0 0.1
2015-Jul-26 10:33N 53°45' W 000°15'1 0.5
2015-Jul-26 09:33N 53°44' W 000°16'4 4.0
2015-Jul-26 08:33N 53°41' W 000°13'9 9.0
2015-Jul-26 07:34N 53°36' W 000°01'9 9.4
2015-Jul-26 06:33N 53°33' E 000°14'6 5.6
2015-Jul-26 05:33N 53°30' E 000°22'6 6.1
2015-Jul-26 04:33N 53°26' E 000°30'28 6.7
2015-Jul-26 00:29N 53°06' E 001°01'7 7.1
2015-Jul-25 23:33N 53°01' E 001°10'8 7.8
2015-Jul-25 22:34N 52°57' E 001°21'9 9.3
2015-Jul-25 21:33N 52°52' E 001°33'1010.1
2015-Jul-25 20:33N 52°44' E 001°44'1010.2
2015-Jul-25 19:33N 52°35' E 001°52'1310.0
2015-Jul-25 18:17N 52°23' E 001°47'36 2.1
2015-Jul-25 01:16N 52°03' E 002°37'7 9.1
2015-Jul-25 00:32N 52°00' E 002°46'10 9.5
2015-Jul-24 23:32N 51°54' E 002°58'1010.1
2015-Jul-24 22:31N 51°47' E 003°10'9 9.9
2015-Jul-24 21:33N 51°40' E 003°20'1111.0
2015-Jul-24 20:33N 51°30' E 003°28'9 9.4
2015-Jul-24 19:33N 51°26' E 003°42'8 7.5
2015-Jul-24 18:32N 51°20' E 003°49'4 4.5
2015-Jul-24 17:33N 51°15' E 003°50'5 4.6
2015-Jul-24 16:32N 51°11' E 003°48'0 0.0
2015-Jul-24 15:32N 51°11' E 003°48'0 0.0
2015-Jul-24 14:32N 51°11' E 003°48'0 0.0
2015-Jul-24 13:32N 51°11' E 003°48'0 0.0
2015-Jul-24 12:32N 51°11' E 003°48'0 0.0
2015-Jul-24 11:32N 51°11' E 003°48'0 0.0
2015-Jul-24 10:32N 51°11' E 003°48'0 0.0
2015-Jul-24 09:32N 51°11' E 003°48'0 0.0
2015-Jul-24 08:29N 51°11' E 003°48'0 0.0
2015-Jul-24 07:32N 51°11' E 003°48'0 0.0
2015-Jul-24 06:32N 51°11' E 003°48'0 0.0
2015-Jul-24 05:26N 51°11' E 003°48'0 0.0
2015-Jul-24 04:29N 51°11' E 003°48'0 0.0
2015-Jul-24 03:32N 51°11' E 003°48'0 0.0
2015-Jul-24 02:32N 51°11' E 003°48'0 0.0
2015-Jul-24 01:32N 51°11' E 003°48'0 0.0
2015-Jul-24 00:32N 51°11' E 003°48'0 0.0
2015-Jul-23 23:32N 51°11' E 003°48'0 0.0
2015-Jul-23 22:32N 51°11' E 003°48'0 0.0
2015-Jul-23 21:29N 51°11' E 003°48'0 0.0
2015-Jul-23 20:32N 51°11' E 003°48'0 0.0
2015-Jul-23 19:32N 51°11' E 003°48'0 0.0
2015-Jul-23 18:32N 51°11' E 003°48'0 0.0
2015-Jul-23 17:32N 51°11' E 003°48'0 0.0
2015-Jul-23 16:29N 51°11' E 003°48'0 0.0
2015-Jul-23 15:26N 51°11' E 003°48'0 0.0
2015-Jul-23 14:29N 51°11' E 003°48'0 0.0
2015-Jul-23 13:29N 51°11' E 003°48'0 0.0
2015-Jul-23 12:32N 51°11' E 003°48'0 0.0
2015-Jul-23 11:23N 51°11' E 003°48'0 0.0
2015-Jul-23 10:32N 51°11' E 003°48'0 0.0
2015-Jul-23 09:32N 51°11' E 003°48'1 1.5
2015-Jul-23 08:33N 51°09' E 003°47'0 0.0
2015-Jul-23 07:33N 51°09' E 003°47'0 0.0
2015-Jul-23 06:33N 51°09' E 003°47'0 0.0
2015-Jul-23 05:33N 51°09' E 003°47'0 0.0
2015-Jul-23 04:33N 51°09' E 003°47'0 0.0
2015-Jul-23 03:30N 51°09' E 003°47'0 0.0
2015-Jul-23 02:33N 51°09' E 003°47'0 0.0
2015-Jul-23 01:30N 51°09' E 003°47'0 0.0
2015-Jul-23 00:33N 51°09' E 003°47'0 0.0
2015-Jul-22 23:33N 51°09' E 003°47'0 0.0
2015-Jul-22 22:27N 51°09' E 003°47'0 0.0
2015-Jul-22 21:30N 51°09' E 003°47'0 0.0
2015-Jul-22 20:33N 51°09' E 003°47'0 0.0
2015-Jul-22 19:33N 51°09' E 003°47'0 0.0
2015-Jul-22 18:30N 51°09' E 003°47'0 0.0
2015-Jul-22 17:33N 51°09' E 003°47'0 0.0
2015-Jul-22 16:33N 51°09' E 003°47'0 0.0
2015-Jul-22 15:30N 51°09' E 003°47'0 0.0
2015-Jul-22 14:30N 51°09' E 003°47'0 0.0
2015-Jul-22 13:33N 51°09' E 003°47'0 0.0
2015-Jul-22 12:33N 51°09' E 003°47'0 0.0
2015-Jul-22 11:30N 51°09' E 003°47'0 0.0
2015-Jul-22 10:33N 51°09' E 003°47'0 0.0
2015-Jul-22 09:33N 51°09' E 003°47'0 0.0
2015-Jul-22 08:33N 51°09' E 003°47'0 0.0
2015-Jul-22 07:30N 51°09' E 003°47'0 0.0
2015-Jul-22 06:33N 51°09' E 003°47'0 0.0
2015-Jul-22 05:33N 51°09' E 003°47'0 0.0
2015-Jul-22 04:33N 51°09' E 003°47'0 0.0
2015-Jul-22 03:33N 51°09' E 003°47'0 0.0
2015-Jul-22 02:33N 51°09' E 003°47'0 0.0
2015-Jul-22 01:27N 51°09' E 003°47'0 0.0
2015-Jul-22 00:33N 51°09' E 003°47'0 0.0
2015-Jul-21 23:33N 51°09' E 003°47'0 0.0
2015-Jul-21 22:33N 51°09' E 003°47'5 5.2
2015-Jul-21 21:33N 51°14' E 003°49'5 5.3
2015-Jul-21 20:33N 51°20' E 003°49'6 5.5
2015-Jul-21 19:33N 51°23' E 003°42'8 7.7
2015-Jul-21 18:33N 51°27' E 003°32'8 8.5
2015-Jul-21 17:33N 51°34' E 003°24'10 9.8
2015-Jul-21 16:32N 51°43' E 003°16'8 7.6
2015-Jul-21 15:33N 51°46' E 003°05'9 9.1
2015-Jul-21 14:32N 51°47' E 002°50'9 9.2
2015-Jul-21 13:33N 51°52' E 002°37'1110.9
2015-Jul-21 12:33N 52°00' E 002°26'1211.5
2015-Jul-21 11:31N 52°10' E 002°17'1111.6
2015-Jul-21 10:33N 52°20' E 002°07'1111.5
2015-Jul-21 09:33N 52°30' E 001°58'1211.9
2015-Jul-21 08:33N 52°40' E 001°49'1111.2
2015-Jul-21 07:33N 52°50' E 001°40'1010.3
2015-Jul-21 06:33N 52°56' E 001°25'10 9.9
2015-Jul-21 05:33N 53°00' E 001°11'  
Track history (hours):
 
Tides and Currents Weather Stations Pressure Air Temp Water Temp Dewpoint Dewpoint Depression Visibility Wind Speed Wind Dir Waves Ship Positions

Hertfordshire

Last reported at 2015-Jul-31 04:33 UTC. Time now 2015-Jul-31 05:07 UTC.
Position N 51°09' E 001°37'.

Length 83 m; draft 5.1 m.

Type: Cargo ship. MMSI: 236563000.

Date/timePositionNaut miles runAvg speedWind from/ knotsBaromVisibWave heightAir tempDewpointWater temp
2015-Jul-31 04:33N 51°09' E 001°37'1010.0
2015-Jul-31 03:34N 51°16' E 001°48'9 8.8
2015-Jul-31 02:34N 51°23' E 001°57'7 7.4
2015-Jul-31 01:33N 51°23' E 002°09'8 8.1
2015-Jul-31 00:33N 51°22' E 002°22'8 7.8
2015-Jul-30 23:33N 51°23' E 002°34'8 8.1
2015-Jul-30 22:34N 51°22' E 002°47'9 9.2
2015-Jul-30 21:33N 51°22' E 003°02'1010.1
2015-Jul-30 20:33N 51°24' E 003°18'1010.0
2015-Jul-30 19:33N 51°26' E 003°33'9 9.0
2015-Jul-30 18:33N 51°22' E 003°46'4 4.0
2015-Jul-30 17:33N 51°18' E 003°50'7 7.4
2015-Jul-30 16:34N 51°11' E 003°48'6 6.2
2015-Jul-30 15:33N 51°05' E 003°44'0 0.0
2015-Jul-30 14:33N 51°05' E 003°44'0 0.0
2015-Jul-30 13:33N 51°05' E 003°44'0 0.0
2015-Jul-30 12:33N 51°05' E 003°44'0 0.0
2015-Jul-30 11:33N 51°05' E 003°44'0 0.0
2015-Jul-30 10:33N 51°05' E 003°44'0 0.0
2015-Jul-30 09:33N 51°05' E 003°44'0 0.0
2015-Jul-30 08:34N 51°05' E 003°44'0 0.0
2015-Jul-30 07:33N 51°05' E 003°44'0 0.0
2015-Jul-30 06:34N 51°05' E 003°44'0 0.0
2015-Jul-30 05:33N 51°05' E 003°44'0 0.0
2015-Jul-30 04:33N 51°05' E 003°44'0 0.0
2015-Jul-30 03:34N 51°05' E 003°44'0 0.0
2015-Jul-30 02:33N 51°05' E 003°44'0 0.0
2015-Jul-30 01:33N 51°05' E 003°44'0 0.0
2015-Jul-30 00:34N 51°05' E 003°44'0 0.0
2015-Jul-29 23:32N 51°05' E 003°44'0 0.0
2015-Jul-29 22:33N 51°05' E 003°44'0 0.0
2015-Jul-29 21:33N 51°05' E 003°44'0 0.0
2015-Jul-29 20:33N 51°05' E 003°44'0 0.0
2015-Jul-29 19:33N 51°05' E 003°44'0 0.0
2015-Jul-29 18:33N 51°05' E 003°44'0 0.0
2015-Jul-29 17:33N 51°05' E 003°44'0 0.0
2015-Jul-29 16:33N 51°05' E 003°44'0 0.0
2015-Jul-29 15:33N 51°05' E 003°44'0 0.0
2015-Jul-29 14:33N 51°05' E 003°44'0 0.0
2015-Jul-29 13:33N 51°05' E 003°44'0 0.0
2015-Jul-29 12:32N 51°05' E 003°44'0 0.0
2015-Jul-29 11:33N 51°05' E 003°44'0 0.0
2015-Jul-29 10:33N 51°05' E 003°44'0 0.0
2015-Jul-29 09:33N 51°05' E 003°44'0 0.0
2015-Jul-29 08:33N 51°05' E 003°44'0 0.0
2015-Jul-29 07:34N 51°05' E 003°44'0 0.0
2015-Jul-29 06:33N 51°05' E 003°44'0 0.0
2015-Jul-29 05:33N 51°05' E 003°44'0 0.0
2015-Jul-29 04:33N 51°05' E 003°44'0 0.0
2015-Jul-29 03:33N 51°05' E 003°44'0 0.0
2015-Jul-29 02:33N 51°05' E 003°44'0 0.0
2015-Jul-29 01:33N 51°05' E 003°44'0 0.0
2015-Jul-29 00:33N 51°05' E 003°44'0 0.0
2015-Jul-28 23:33N 51°05' E 003°44'0 0.0
2015-Jul-28 22:33N 51°05' E 003°44'0 0.0
2015-Jul-28 21:33N 51°05' E 003°44'0 0.0
2015-Jul-28 20:33N 51°05' E 003°44'0 0.0
2015-Jul-28 19:33N 51°05' E 003°44'3 2.8
2015-Jul-28 18:33N 51°08' E 003°46'10 9.8
2015-Jul-28 17:34N 51°17' E 003°50'4 4.3
2015-Jul-28 16:34N 51°21' E 003°47'9 8.8
2015-Jul-28 15:34N 51°26' E 003°35'9 9.1
2015-Jul-28 14:34N 51°32' E 003°25'9 8.8
2015-Jul-28 13:33N 51°40' E 003°18'9 8.8
2015-Jul-28 12:33N 51°45' E 003°07'4010.0
2015-Jul-28 08:34N 52°06' E 002°12'1310.4
2015-Jul-28 07:20N 52°18' E 002°04'911.6
2015-Jul-28 06:34N 52°26' E 001°59'1212.3
2015-Jul-28 05:34N 52°38' E 001°52'1312.9
2015-Jul-28 04:34N 52°49' E 001°41'1212.4
2015-Jul-28 03:34N 52°56' E 001°25'1212.1
2015-Jul-28 02:34N 53°02' E 001°07'3411.3
2015-Jul-27 23:34N 53°26' E 000°27'1110.9
2015-Jul-27 22:34N 53°32' E 000°13'9 9.2
2015-Jul-27 21:34N 53°36' W 000°02'1010.4
2015-Jul-27 20:34N 53°43' W 000°14'2 1.9
2015-Jul-27 19:34N 53°45' W 000°16'0 0.2
2015-Jul-27 18:31N 53°45' W 000°15'0 0.0
2015-Jul-27 17:31N 53°44' W 000°15'0 0.0
2015-Jul-27 16:31N 53°44' W 000°15'0 0.0
2015-Jul-27 15:28N 53°44' W 000°15'0 0.0
2015-Jul-27 14:31N 53°44' W 000°15'0 0.0
2015-Jul-27 13:31N 53°44' W 000°15'0 0.0
2015-Jul-27 12:31N 53°44' W 000°15'0 0.0
2015-Jul-27 11:31N 53°44' W 000°15'0 0.0
2015-Jul-27 10:28N 53°45' W 000°15'0 0.0
2015-Jul-27 09:32N 53°44' W 000°15'0 0.1
2015-Jul-27 08:33N 53°45' W 000°15'0 0.0
2015-Jul-27 07:33N 53°45' W 000°16'0 0.1
2015-Jul-27 06:30N 53°44' W 000°15'0 0.1
2015-Jul-27 05:33N 53°45' W 000°15'0 0.0
2015-Jul-27 04:33N 53°44' W 000°15'0 0.0
2015-Jul-27 03:33N 53°44' W 000°15'0 0.1
2015-Jul-27 02:33N 53°44' W 000°15'0 0.1
2015-Jul-27 01:33N 53°44' W 000°15'0 0.1
2015-Jul-27 00:33N 53°44' W 000°15'0 0.0
2015-Jul-26 23:33N 53°45' W 000°15'0 0.0
2015-Jul-26 22:33N 53°44' W 000°15'0 0.0
2015-Jul-26 21:33N 53°44' W 000°15'0 0.0
2015-Jul-26 20:30N 53°44' W 000°15'0 0.1
2015-Jul-26 19:33N 53°45' W 000°16'0 0.0
2015-Jul-26 18:33N 53°45' W 000°15'0 0.0
2015-Jul-26 17:33N 53°44' W 000°15'0 0.0
2015-Jul-26 16:33N 53°45' W 000°15'0 0.0
2015-Jul-26 15:33N 53°45' W 000°15'0 0.1
2015-Jul-26 14:33N 53°44' W 000°16'0 0.1
2015-Jul-26 13:33N 53°44' W 000°15'0 0.0
2015-Jul-26 12:33N 53°44' W 000°15'0 0.1
2015-Jul-26 11:33N 53°44' W 000°15'0 0.1
2015-Jul-26 10:33N 53°45' W 000°15'1 0.5
2015-Jul-26 09:33N 53°44' W 000°16'4 4.0
2015-Jul-26 08:33N 53°41' W 000°13'9 9.0
2015-Jul-26 07:34N 53°36' W 000°01'9 9.4
2015-Jul-26 06:33N 53°33' E 000°14'6 5.6
2015-Jul-26 05:33N 53°30' E 000°22'6 6.1
2015-Jul-26 04:33N 53°26' E 000°30'28 6.7
2015-Jul-26 00:29N 53°06' E 001°01'7 7.1
2015-Jul-25 23:33N 53°01' E 001°10'8 7.8
2015-Jul-25 22:34N 52°57' E 001°21'9 9.3
2015-Jul-25 21:33N 52°52' E 001°33'1010.1
2015-Jul-25 20:33N 52°44' E 001°44'1010.2
2015-Jul-25 19:33N 52°35' E 001°52'1310.0
2015-Jul-25 18:17N 52°23' E 001°47'36 2.1
2015-Jul-25 01:16N 52°03' E 002°37'7 9.1
2015-Jul-25 00:32N 52°00' E 002°46'10 9.5
2015-Jul-24 23:32N 51°54' E 002°58'1010.1
2015-Jul-24 22:31N 51°47' E 003°10'9 9.9
2015-Jul-24 21:33N 51°40' E 003°20'1111.0
2015-Jul-24 20:33N 51°30' E 003°28'9 9.4
2015-Jul-24 19:33N 51°26' E 003°42'8 7.5
2015-Jul-24 18:32N 51°20' E 003°49'4 4.5
2015-Jul-24 17:33N 51°15' E 003°50'5 4.6
2015-Jul-24 16:32N 51°11' E 003°48'0 0.0
2015-Jul-24 15:32N 51°11' E 003°48'0 0.0
2015-Jul-24 14:32N 51°11' E 003°48'0 0.0
2015-Jul-24 13:32N 51°11' E 003°48'0 0.0
2015-Jul-24 12:32N 51°11' E 003°48'0 0.0
2015-Jul-24 11:32N 51°11' E 003°48'0 0.0
2015-Jul-24 10:32N 51°11' E 003°48'0 0.0
2015-Jul-24 09:32N 51°11' E 003°48'0 0.0
2015-Jul-24 08:29N 51°11' E 003°48'0 0.0
2015-Jul-24 07:32N 51°11' E 003°48'0 0.0
2015-Jul-24 06:32N 51°11' E 003°48'0 0.0
2015-Jul-24 05:26N 51°11' E 003°48'0 0.0
2015-Jul-24 04:29N 51°11' E 003°48'0 0.0
2015-Jul-24 03:32N 51°11' E 003°48'0 0.0
2015-Jul-24 02:32N 51°11' E 003°48'0 0.0
2015-Jul-24 01:32N 51°11' E 003°48'0 0.0
2015-Jul-24 00:32N 51°11' E 003°48'0 0.0
2015-Jul-23 23:32N 51°11' E 003°48'0 0.0
2015-Jul-23 22:32N 51°11' E 003°48'0 0.0
2015-Jul-23 21:29N 51°11' E 003°48'0 0.0
2015-Jul-23 20:32N 51°11' E 003°48'0 0.0
2015-Jul-23 19:32N 51°11' E 003°48'0 0.0
2015-Jul-23 18:32N 51°11' E 003°48'0 0.0
2015-Jul-23 17:32N 51°11' E 003°48'0 0.0
2015-Jul-23 16:29N 51°11' E 003°48'0 0.0
2015-Jul-23 15:26N 51°11' E 003°48'0 0.0
2015-Jul-23 14:29N 51°11' E 003°48'0 0.0
2015-Jul-23 13:29N 51°11' E 003°48'0 0.0
2015-Jul-23 12:32N 51°11' E 003°48'0 0.0
2015-Jul-23 11:23N 51°11' E 003°48'0 0.0
2015-Jul-23 10:32N 51°11' E 003°48'0 0.0
2015-Jul-23 09:32N 51°11' E 003°48'1 1.5
2015-Jul-23 08:33N 51°09' E 003°47'0 0.0
2015-Jul-23 07:33N 51°09' E 003°47'0 0.0
2015-Jul-23 06:33N 51°09' E 003°47'0 0.0
2015-Jul-23 05:33N 51°09' E 003°47'0 0.0
2015-Jul-23 04:33N 51°09' E 003°47'0 0.0
2015-Jul-23 03:30N 51°09' E 003°47'0 0.0
2015-Jul-23 02:33N 51°09' E 003°47'0 0.0
2015-Jul-23 01:30N 51°09' E 003°47'0 0.0
2015-Jul-23 00:33N 51°09' E 003°47'0 0.0
2015-Jul-22 23:33N 51°09' E 003°47'0 0.0
2015-Jul-22 22:27N 51°09' E 003°47'0 0.0
2015-Jul-22 21:30N 51°09' E 003°47'0 0.0
2015-Jul-22 20:33N 51°09' E 003°47'0 0.0
2015-Jul-22 19:33N 51°09' E 003°47'0 0.0
2015-Jul-22 18:30N 51°09' E 003°47'0 0.0
2015-Jul-22 17:33N 51°09' E 003°47'0 0.0
2015-Jul-22 16:33N 51°09' E 003°47'0 0.0
2015-Jul-22 15:30N 51°09' E 003°47'0 0.0
2015-Jul-22 14:30N 51°09' E 003°47'0 0.0
2015-Jul-22 13:33N 51°09' E 003°47'0 0.0
2015-Jul-22 12:33N 51°09' E 003°47'0 0.0
2015-Jul-22 11:30N 51°09' E 003°47'0 0.0
2015-Jul-22 10:33N 51°09' E 003°47'0 0.0
2015-Jul-22 09:33N 51°09' E 003°47'0 0.0
2015-Jul-22 08:33N 51°09' E 003°47'0 0.0
2015-Jul-22 07:30N 51°09' E 003°47'0 0.0
2015-Jul-22 06:33N 51°09' E 003°47'0 0.0
2015-Jul-22 05:33N 51°09' E 003°47'0 0.0
2015-Jul-22 04:33N 51°09' E 003°47'0 0.0
2015-Jul-22 03:33N 51°09' E 003°47'0 0.0
2015-Jul-22 02:33N 51°09' E 003°47'0 0.0
2015-Jul-22 01:27N 51°09' E 003°47'0 0.0
2015-Jul-22 00:33N 51°09' E 003°47'0 0.0
2015-Jul-21 23:33N 51°09' E 003°47'0 0.0
2015-Jul-21 22:33N 51°09' E 003°47'5 5.2
2015-Jul-21 21:33N 51°14' E 003°49'5 5.3
2015-Jul-21 20:33N 51°20' E 003°49'6 5.5
2015-Jul-21 19:33N 51°23' E 003°42'8 7.7
2015-Jul-21 18:33N 51°27' E 003°32'8 8.5
2015-Jul-21 17:33N 51°34' E 003°24'10 9.8
2015-Jul-21 16:32N 51°43' E 003°16'8 7.6
2015-Jul-21 15:33N 51°46' E 003°05'9 9.1
2015-Jul-21 14:32N 51°47' E 002°50'9 9.2
2015-Jul-21 13:33N 51°52' E 002°37'1110.9
2015-Jul-21 12:33N 52°00' E 002°26'1211.5
2015-Jul-21 11:31N 52°10' E 002°17'1111.6
2015-Jul-21 10:33N 52°20' E 002°07'1111.5
2015-Jul-21 09:33N 52°30' E 001°58'1211.9
2015-Jul-21 08:33N 52°40' E 001°49'1111.2
2015-Jul-21 07:33N 52°50' E 001°40'1010.3
2015-Jul-21 06:33N 52°56' E 001°25'10 9.9
2015-Jul-21 05:33N 53°00' E 001°11'  

Dump ship's entire track history